sensor_id;sensor_type;location;lat;lon;timestamp;pressure;altitude;pressure_sealevel;temperature;humidity
22335;BME280;11335;43.848;25.958;2022-07-23T00:02:22;101014.00;;;26.97;90.96
22335;BME280;11335;43.848;25.958;2022-07-23T00:05:08;101026.44;;;26.54;95.46
22335;BME280;11335;43.848;25.958;2022-07-23T00:07:54;101028.81;;;26.58;95.86
22335;BME280;11335;43.848;25.958;2022-07-23T00:10:41;101026.50;;;26.76;95.03
22335;BME280;11335;43.848;25.958;2022-07-23T00:13:27;101029.72;;;26.46;100.00
22335;BME280;11335;43.848;25.958;2022-07-23T00:16:13;101018.44;;;26.19;100.00
22335;BME280;11335;43.848;25.958;2022-07-23T00:18:59;101026.41;;;26.32;100.00
22335;BME280;11335;43.848;25.958;2022-07-23T00:21:46;101020.53;;;26.38;100.00
22335;BME280;11335;43.848;25.958;2022-07-23T00:24:32;101020.06;;;26.44;100.00
22335;BME280;11335;43.848;25.958;2022-07-23T00:27:18;101016.53;;;26.54;100.00
22335;BME280;11335;43.848;25.958;2022-07-23T00:30:04;101025.44;;;26.55;100.00
22335;BME280;11335;43.848;25.958;2022-07-23T00:32:54;101017.00;;;26.48;99.38
22335;BME280;11335;43.848;25.958;2022-07-23T00:35:41;101009.78;;;26.38;97.58
22335;BME280;11335;43.848;25.958;2022-07-23T00:38:27;101010.66;;;26.38;96.25
22335;BME280;11335;43.848;25.958;2022-07-23T00:41:13;101004.19;;;26.41;95.21
22335;BME280;11335;43.848;25.958;2022-07-23T00:47:04;101005.16;;;26.51;91.50
22335;BME280;11335;43.848;25.958;2022-07-23T00:49:51;100994.38;;;26.18;90.64
22335;BME280;11335;43.848;25.958;2022-07-23T00:52:37;100997.91;;;26.18;90.42
22335;BME280;11335;43.848;25.958;2022-07-23T00:55:24;101001.25;;;26.44;86.33
22335;BME280;11335;43.848;25.958;2022-07-23T00:58:10;100996.31;;;26.27;84.76
22335;BME280;11335;43.848;25.958;2022-07-23T01:00:56;100999.28;;;26.46;83.91
22335;BME280;11335;43.848;25.958;2022-07-23T01:03:42;100995.13;;;26.42;84.19
22335;BME280;11335;43.848;25.958;2022-07-23T01:06:28;100996.13;;;26.52;82.11
22335;BME280;11335;43.848;25.958;2022-07-23T01:09:14;100993.00;;;26.69;80.38
22335;BME280;11335;43.848;25.958;2022-07-23T01:12:00;100990.97;;;26.16;82.44
22335;BME280;11335;43.848;25.958;2022-07-23T01:14:59;100996.84;;;26.32;80.08
22335;BME280;11335;43.848;25.958;2022-07-23T01:17:45;100994.44;;;26.62;79.71
22335;BME280;11335;43.848;25.958;2022-07-23T01:20:31;100997.16;;;26.16;82.25
22335;BME280;11335;43.848;25.958;2022-07-23T01:23:17;100991.06;;;25.91;84.66
22335;BME280;11335;43.848;25.958;2022-07-23T01:26:03;100992.16;;;26.12;84.46
22335;BME280;11335;43.848;25.958;2022-07-23T01:28:49;100985.47;;;26.17;84.71
22335;BME280;11335;43.848;25.958;2022-07-23T01:31:35;100994.63;;;26.26;84.81
22335;BME280;11335;43.848;25.958;2022-07-23T01:34:21;100990.06;;;25.81;89.43
22335;BME280;11335;43.848;25.958;2022-07-23T01:37:06;100994.19;;;25.74;85.82
22335;BME280;11335;43.848;25.958;2022-07-23T01:39:52;101003.50;;;25.81;83.76
22335;BME280;11335;43.848;25.958;2022-07-23T01:42:38;101000.03;;;25.44;82.15
22335;BME280;11335;43.848;25.958;2022-07-23T01:45:24;100993.81;;;25.44;81.30
22335;BME280;11335;43.848;25.958;2022-07-23T01:48:10;100988.50;;;25.31;80.74
22335;BME280;11335;43.848;25.958;2022-07-23T01:50:55;100994.63;;;25.33;80.65
22335;BME280;11335;43.848;25.958;2022-07-23T01:53:41;100994.16;;;25.63;75.99
22335;BME280;11335;43.848;25.958;2022-07-23T01:56:27;100993.31;;;25.39;77.27
22335;BME280;11335;43.848;25.958;2022-07-23T01:59:13;100989.47;;;25.54;76.30
22335;BME280;11335;43.848;25.958;2022-07-23T02:01:58;100992.25;;;25.52;75.83
22335;BME280;11335;43.848;25.958;2022-07-23T02:04:44;100990.09;;;25.34;77.12
22335;BME280;11335;43.848;25.958;2022-07-23T02:07:30;100994.22;;;25.50;75.39
22335;BME280;11335;43.848;25.958;2022-07-23T02:10:16;100988.63;;;25.53;74.57
22335;BME280;11335;43.848;25.958;2022-07-23T02:13:02;100993.63;;;25.58;75.00
22335;BME280;11335;43.848;25.958;2022-07-23T02:15:47;100991.84;;;25.10;77.57
22335;BME280;11335;43.848;25.958;2022-07-23T02:18:33;100990.22;;;24.96;78.06
22335;BME280;11335;43.848;25.958;2022-07-23T02:21:19;100988.16;;;25.23;76.47
22335;BME280;11335;43.848;25.958;2022-07-23T02:24:05;100977.25;;;25.14;77.02
22335;BME280;11335;43.848;25.958;2022-07-23T02:26:51;100977.66;;;25.20;76.03
22335;BME280;11335;43.848;25.958;2022-07-23T02:29:36;100976.41;;;25.13;76.95
22335;BME280;11335;43.848;25.958;2022-07-23T02:32:22;100983.16;;;25.19;76.87
22335;BME280;11335;43.848;25.958;2022-07-23T02:35:08;100985.56;;;25.47;76.36
22335;BME280;11335;43.848;25.958;2022-07-23T02:37:54;100982.19;;;25.67;74.08
22335;BME280;11335;43.848;25.958;2022-07-23T02:40:40;100979.94;;;25.50;74.39
22335;BME280;11335;43.848;25.958;2022-07-23T02:43:25;100986.22;;;25.61;75.00
22335;BME280;11335;43.848;25.958;2022-07-23T02:46:11;100994.16;;;25.63;73.21
22335;BME280;11335;43.848;25.958;2022-07-23T02:48:57;100986.56;;;25.57;73.29
22335;BME280;11335;43.848;25.958;2022-07-23T02:51:43;100987.06;;;25.62;71.89
22335;BME280;11335;43.848;25.958;2022-07-23T02:54:28;100989.25;;;25.57;71.44
22335;BME280;11335;43.848;25.958;2022-07-23T02:57:14;100993.53;;;25.59;72.27
22335;BME280;11335;43.848;25.958;2022-07-23T03:00:00;100998.38;;;25.31;75.70
22335;BME280;11335;43.848;25.958;2022-07-23T03:02:46;100994.22;;;25.14;77.44
22335;BME280;11335;43.848;25.958;2022-07-23T03:05:31;100998.69;;;24.90;78.72
22335;BME280;11335;43.848;25.958;2022-07-23T03:08:17;100993.25;;;25.28;76.09
22335;BME280;11335;43.848;25.958;2022-07-23T03:11:03;100998.38;;;25.18;75.13
22335;BME280;11335;43.848;25.958;2022-07-23T03:13:49;101011.63;;;25.45;73.90
22335;BME280;11335;43.848;25.958;2022-07-23T03:16:34;101020.06;;;25.28;75.05
22335;BME280;11335;43.848;25.958;2022-07-23T03:19:20;101017.78;;;25.58;74.23
22335;BME280;11335;43.848;25.958;2022-07-23T03:22:06;101026.63;;;25.47;75.77
22335;BME280;11335;43.848;25.958;2022-07-23T03:24:52;101029.78;;;25.65;85.35
22335;BME280;11335;43.848;25.958;2022-07-23T03:27:41;101023.97;;;24.99;91.47
22335;BME280;11335;43.848;25.958;2022-07-23T03:30:27;101026.09;;;25.06;97.88
22335;BME280;11335;43.848;25.958;2022-07-23T03:33:13;101027.66;;;25.34;97.32
22335;BME280;11335;43.848;25.958;2022-07-23T03:35:59;101030.69;;;25.53;97.11
22335;BME280;11335;43.848;25.958;2022-07-23T03:38:44;101031.97;;;25.24;99.86
22335;BME280;11335;43.848;25.958;2022-07-23T03:41:30;101040.69;;;24.90;100.00
22335;BME280;11335;43.848;25.958;2022-07-23T03:44:16;101039.03;;;25.37;99.24
22335;BME280;11335;43.848;25.958;2022-07-23T03:47:03;101037.47;;;25.46;98.79
22335;BME280;11335;43.848;25.958;2022-07-23T03:49:49;101038.84;;;25.51;97.88
22335;BME280;11335;43.848;25.958;2022-07-23T03:52:35;101052.66;;;25.34;99.48
22335;BME280;11335;43.848;25.958;2022-07-23T03:55:21;101048.16;;;25.35;100.00
22335;BME280;11335;43.848;25.958;2022-07-23T03:58:07;101055.59;;;25.19;100.00
22335;BME280;11335;43.848;25.958;2022-07-23T04:00:52;101048.94;;;25.12;100.00
22335;BME280;11335;43.848;25.958;2022-07-23T04:03:38;101057.19;;;25.21;100.00
22335;BME280;11335;43.848;25.958;2022-07-23T04:06:25;101063.94;;;25.14;100.00
22335;BME280;11335;43.848;25.958;2022-07-23T04:09:11;101069.16;;;24.92;100.00
22335;BME280;11335;43.848;25.958;2022-07-23T04:11:57;101080.59;;;25.07;100.00
22335;BME280;11335;43.848;25.958;2022-07-23T04:14:42;101075.25;;;25.07;100.00
22335;BME280;11335;43.848;25.958;2022-07-23T04:17:28;101077.81;;;24.96;100.00
22335;BME280;11335;43.848;25.958;2022-07-23T04:20:14;101080.16;;;25.13;100.00
22335;BME280;11335;43.848;25.958;2022-07-23T04:23:00;101077.25;;;25.03;100.00
22335;BME280;11335;43.848;25.958;2022-07-23T04:25:46;101073.25;;;25.34;100.00
22335;BME280;11335;43.848;25.958;2022-07-23T04:28:31;101076.00;;;24.84;100.00
22335;BME280;11335;43.848;25.958;2022-07-23T04:31:17;101069.63;;;25.10;100.00
22335;BME280;11335;43.848;25.958;2022-07-23T04:34:03;101065.66;;;25.64;100.00
22335;BME280;11335;43.848;25.958;2022-07-23T04:36:49;101065.53;;;25.65;100.00
22335;BME280;11335;43.848;25.958;2022-07-23T04:39:34;101069.88;;;25.55;100.00
22335;BME280;11335;43.848;25.958;2022-07-23T04:42:20;101076.31;;;25.76;100.00
22335;BME280;11335;43.848;25.958;2022-07-23T04:45:06;101070.72;;;25.79;100.00
22335;BME280;11335;43.848;25.958;2022-07-23T04:47:52;101083.66;;;25.98;98.24
22335;BME280;11335;43.848;25.958;2022-07-23T04:50:38;101088.91;;;25.99;98.86
22335;BME280;11335;43.848;25.958;2022-07-23T04:53:24;101090.69;;;26.11;96.49
22335;BME280;11335;43.848;25.958;2022-07-23T04:56:09;101098.69;;;26.00;96.00
22335;BME280;11335;43.848;25.958;2022-07-23T04:58:55;101096.97;;;25.99;94.20
22335;BME280;11335;43.848;25.958;2022-07-23T05:01:41;101100.28;;;26.03;95.03
22335;BME280;11335;43.848;25.958;2022-07-23T05:04:27;101104.72;;;26.15;93.84
22335;BME280;11335;43.848;25.958;2022-07-23T05:07:13;101103.84;;;26.38;90.79
22335;BME280;11335;43.848;25.958;2022-07-23T05:09:58;101107.00;;;26.32;91.96
22335;BME280;11335;43.848;25.958;2022-07-23T05:12:44;101112.00;;;26.36;88.37
22335;BME280;11335;43.848;25.958;2022-07-23T05:15:30;101117.59;;;26.22;91.53
22335;BME280;11335;43.848;25.958;2022-07-23T05:18:16;101122.97;;;26.22;91.14
22335;BME280;11335;43.848;25.958;2022-07-23T05:21:02;101119.69;;;26.30;89.01
22335;BME280;11335;43.848;25.958;2022-07-23T05:23:47;101120.28;;;26.22;90.43
22335;BME280;11335;43.848;25.958;2022-07-23T05:26:33;101114.25;;;26.42;85.63
22335;BME280;11335;43.848;25.958;2022-07-23T05:29:19;101128.41;;;26.44;84.69
22335;BME280;11335;43.848;25.958;2022-07-23T05:32:05;101123.41;;;26.51;75.23
22335;BME280;11335;43.848;25.958;2022-07-23T05:34:51;101123.97;;;26.67;76.90
22335;BME280;11335;43.848;25.958;2022-07-23T05:37:36;101126.97;;;26.97;74.53
22335;BME280;11335;43.848;25.958;2022-07-23T05:40:22;101128.44;;;27.01;72.75
22335;BME280;11335;43.848;25.958;2022-07-23T05:43:08;101128.69;;;27.09;71.75
22335;BME280;11335;43.848;25.958;2022-07-23T05:45:54;101127.22;;;27.60;66.07
22335;BME280;11335;43.848;25.958;2022-07-23T05:48:40;101134.69;;;27.45;63.27
22335;BME280;11335;43.848;25.958;2022-07-23T05:51:26;101134.97;;;27.31;65.09
22335;BME280;11335;43.848;25.958;2022-07-23T05:54:12;101140.56;;;27.62;64.33
22335;BME280;11335;43.848;25.958;2022-07-23T05:56:58;101141.44;;;27.62;67.87
22335;BME280;11335;43.848;25.958;2022-07-23T05:59:44;101130.63;;;27.84;67.54
22335;BME280;11335;43.848;25.958;2022-07-23T06:02:29;101131.88;;;27.69;67.36
22335;BME280;11335;43.848;25.958;2022-07-23T06:05:15;101134.69;;;27.68;65.54
22335;BME280;11335;43.848;25.958;2022-07-23T06:08:01;101126.63;;;28.10;63.72
22335;BME280;11335;43.848;25.958;2022-07-23T06:10:47;101132.53;;;28.04;63.71
22335;BME280;11335;43.848;25.958;2022-07-23T06:13:33;101131.22;;;28.30;64.47
22335;BME280;11335;43.848;25.958;2022-07-23T06:16:18;101135.41;;;28.23;65.15
22335;BME280;11335;43.848;25.958;2022-07-23T06:19:04;101136.88;;;28.16;66.79
22335;BME280;11335;43.848;25.958;2022-07-23T06:21:50;101140.41;;;28.28;64.42
22335;BME280;11335;43.848;25.958;2022-07-23T06:24:36;101142.50;;;28.56;66.24
22335;BME280;11335;43.848;25.958;2022-07-23T06:27:22;101140.94;;;28.74;70.06
22335;BME280;11335;43.848;25.958;2022-07-23T06:30:08;101143.59;;;28.53;76.95
22335;BME280;11335;43.848;25.958;2022-07-23T06:32:55;101149.41;;;28.49;80.43
22335;BME280;11335;43.848;25.958;2022-07-23T06:35:41;101150.00;;;28.52;82.13
22335;BME280;11335;43.848;25.958;2022-07-23T06:38:27;101148.03;;;28.75;79.15
22335;BME280;11335;43.848;25.958;2022-07-23T06:41:12;101146.84;;;28.47;79.30
22335;BME280;11335;43.848;25.958;2022-07-23T06:43:58;101138.97;;;28.76;75.93
22335;BME280;11335;43.848;25.958;2022-07-23T06:46:44;101141.59;;;28.35;77.82
22335;BME280;11335;43.848;25.958;2022-07-23T06:49:30;101143.56;;;28.33;76.87
22335;BME280;11335;43.848;25.958;2022-07-23T06:52:15;101139.53;;;28.79;71.34
22335;BME280;11335;43.848;25.958;2022-07-23T06:55:02;101138.34;;;28.93;70.56
22335;BME280;11335;43.848;25.958;2022-07-23T06:57:47;101146.78;;;29.29;67.66
22335;BME280;11335;43.848;25.958;2022-07-23T07:00:33;101153.09;;;29.69;67.31
22335;BME280;11335;43.848;25.958;2022-07-23T07:03:19;101149.88;;;29.94;65.49
22335;BME280;11335;43.848;25.958;2022-07-23T07:06:05;101149.19;;;30.02;59.96
22335;BME280;11335;43.848;25.958;2022-07-23T07:08:51;101154.38;;;29.35;62.08
22335;BME280;11335;43.848;25.958;2022-07-23T07:11:36;101158.38;;;29.80;58.21
22335;BME280;11335;43.848;25.958;2022-07-23T07:14:22;101154.13;;;29.78;56.73
22335;BME280;11335;43.848;25.958;2022-07-23T07:17:08;101159.19;;;29.62;56.67
22335;BME280;11335;43.848;25.958;2022-07-23T07:19:56;101156.75;;;29.29;57.34
22335;BME280;11335;43.848;25.958;2022-07-23T07:22:41;101155.38;;;29.44;58.03
22335;BME280;11335;43.848;25.958;2022-07-23T07:25:35;101140.94;;;30.03;56.09
22335;BME280;11335;43.848;25.958;2022-07-23T07:28:21;101144.81;;;30.20;54.61
22335;BME280;11335;43.848;25.958;2022-07-23T07:31:06;101143.41;;;30.54;54.08
22335;BME280;11335;43.848;25.958;2022-07-23T07:33:52;101134.16;;;30.75;52.29
22335;BME280;11335;43.848;25.958;2022-07-23T07:36:38;101141.72;;;31.18;52.60
22335;BME280;11335;43.848;25.958;2022-07-23T07:39:24;101139.53;;;30.56;56.84
22335;BME280;11335;43.848;25.958;2022-07-23T07:42:09;101136.06;;;31.02;54.52
22335;BME280;11335;43.848;25.958;2022-07-23T07:44:56;101141.06;;;31.43;52.33
22335;BME280;11335;43.848;25.958;2022-07-23T07:47:41;101133.69;;;31.63;52.35
22335;BME280;11335;43.848;25.958;2022-07-23T07:50:27;101136.47;;;31.80;51.10
22335;BME280;11335;43.848;25.958;2022-07-23T07:53:13;101122.75;;;31.82;52.08
22335;BME280;11335;43.848;25.958;2022-07-23T07:55:59;101124.41;;;32.10;51.41
22335;BME280;11335;43.848;25.958;2022-07-23T07:58:44;101121.53;;;31.94;52.26
22335;BME280;11335;43.848;25.958;2022-07-23T08:01:30;101124.88;;;32.23;51.30
22335;BME280;11335;43.848;25.958;2022-07-23T08:04:16;101118.97;;;32.62;51.72
22335;BME280;11335;43.848;25.958;2022-07-23T08:07:03;101128.38;;;33.19;49.19
22335;BME280;11335;43.848;25.958;2022-07-23T08:09:49;101121.28;;;33.26;46.94
22335;BME280;11335;43.848;25.958;2022-07-23T08:12:42;101132.81;;;33.53;43.63
22335;BME280;11335;43.848;25.958;2022-07-23T08:15:30;101115.97;;;33.50;42.93
22335;BME280;11335;43.848;25.958;2022-07-23T08:18:16;101122.41;;;33.82;41.96
22335;BME280;11335;43.848;25.958;2022-07-23T08:21:03;101114.31;;;34.22;41.53
22335;BME280;11335;43.848;25.958;2022-07-23T08:23:50;101117.16;;;33.89;42.29
22335;BME280;11335;43.848;25.958;2022-07-23T08:26:36;101116.19;;;34.62;41.17
22335;BME280;11335;43.848;25.958;2022-07-23T08:29:22;101103.97;;;34.82;41.16
22335;BME280;11335;43.848;25.958;2022-07-23T08:32:08;101108.09;;;35.24;39.63
22335;BME280;11335;43.848;25.958;2022-07-23T08:34:53;101108.88;;;35.49;39.40
22335;BME280;11335;43.848;25.958;2022-07-23T08:37:39;101108.47;;;35.99;37.83
22335;BME280;11335;43.848;25.958;2022-07-23T08:40:26;101103.50;;;35.25;38.76
22335;BME280;11335;43.848;25.958;2022-07-23T08:43:18;101094.44;;;35.41;38.33
22335;BME280;11335;43.848;25.958;2022-07-23T08:46:04;101105.53;;;35.23;38.49
22335;BME280;11335;43.848;25.958;2022-07-23T08:48:50;101100.06;;;35.70;38.29
22335;BME280;11335;43.848;25.958;2022-07-23T08:51:36;101098.50;;;35.83;37.79
22335;BME280;11335;43.848;25.958;2022-07-23T08:54:22;101099.53;;;35.74;36.30
22335;BME280;11335;43.848;25.958;2022-07-23T08:57:08;101096.53;;;36.45;35.50
22335;BME280;11335;43.848;25.958;2022-07-23T08:59:54;101095.25;;;36.10;33.76
22335;BME280;11335;43.848;25.958;2022-07-23T09:02:41;101099.88;;;35.79;32.98
22335;BME280;11335;43.848;25.958;2022-07-23T09:05:27;101092.00;;;36.37;32.04
22335;BME280;11335;43.848;25.958;2022-07-23T09:11:01;101091.94;;;37.11;31.56
22335;BME280;11335;43.848;25.958;2022-07-23T09:13:49;101100.03;;;36.90;33.25
22335;BME280;11335;43.848;25.958;2022-07-23T09:16:35;101091.72;;;35.71;32.05
22335;BME280;11335;43.848;25.958;2022-07-23T09:19:27;101091.72;;;36.69;31.76
22335;BME280;11335;43.848;25.958;2022-07-23T09:22:24;101083.59;;;35.94;32.15
22335;BME280;11335;43.848;25.958;2022-07-23T09:25:18;101092.38;;;36.71;32.54
22335;BME280;11335;43.848;25.958;2022-07-23T09:28:04;101090.56;;;37.15;32.52
22335;BME280;11335;43.848;25.958;2022-07-23T09:30:52;101088.38;;;36.22;33.38
22335;BME280;11335;43.848;25.958;2022-07-23T09:33:38;101087.34;;;36.97;32.44
22335;BME280;11335;43.848;25.958;2022-07-23T09:36:28;101080.66;;;37.14;33.19
22335;BME280;11335;43.848;25.958;2022-07-23T09:39:16;101090.47;;;37.23;32.51
22335;BME280;11335;43.848;25.958;2022-07-23T09:42:20;101082.50;;;36.99;32.49
22335;BME280;11335;43.848;25.958;2022-07-23T09:45:10;101069.41;;;36.43;32.28
22335;BME280;11335;43.848;25.958;2022-07-23T09:48:16;101066.94;;;36.71;32.67
22335;BME280;11335;43.848;25.958;2022-07-23T09:51:03;101068.84;;;36.99;32.04
22335;BME280;11335;43.848;25.958;2022-07-23T09:53:50;101072.53;;;36.77;31.69
22335;BME280;11335;43.848;25.958;2022-07-23T09:56:36;101072.53;;;36.77;31.97
22335;BME280;11335;43.848;25.958;2022-07-23T09:59:25;101070.34;;;37.02;31.27
22335;BME280;11335;43.848;25.958;2022-07-23T10:02:12;101057.63;;;37.38;31.37
22335;BME280;11335;43.848;25.958;2022-07-23T10:05:01;101050.00;;;37.33;30.70
22335;BME280;11335;43.848;25.958;2022-07-23T10:07:47;101049.88;;;37.12;30.91
22335;BME280;11335;43.848;25.958;2022-07-23T10:10:33;101049.97;;;37.62;30.36
22335;BME280;11335;43.848;25.958;2022-07-23T10:13:20;101048.94;;;37.49;31.07
22335;BME280;11335;43.848;25.958;2022-07-23T10:16:25;101043.88;;;37.31;30.39
22335;BME280;11335;43.848;25.958;2022-07-23T10:19:11;101031.53;;;37.21;30.78
22335;BME280;11335;43.848;25.958;2022-07-23T10:22:03;101041.25;;;36.94;30.54
22335;BME280;11335;43.848;25.958;2022-07-23T10:34:30;101033.09;;;37.44;30.79
22335;BME280;11335;43.848;25.958;2022-07-23T10:37:23;101027.50;;;37.52;30.25
22335;BME280;11335;43.848;25.958;2022-07-23T10:43:13;101013.53;;;37.12;29.63
22335;BME280;11335;43.848;25.958;2022-07-23T10:46:53;101022.22;;;37.01;30.60
22335;BME280;11335;43.848;25.958;2022-07-23T10:49:43;101011.94;;;37.32;30.13
22335;BME280;11335;43.848;25.958;2022-07-23T10:52:29;101009.88;;;37.55;29.99
22335;BME280;11335;43.848;25.958;2022-07-23T10:58:06;101005.91;;;37.72;29.62
22335;BME280;11335;43.848;25.958;2022-07-23T11:00:52;101003.13;;;37.36;29.66
22335;BME280;11335;43.848;25.958;2022-07-23T11:03:38;101000.41;;;37.36;28.94
22335;BME280;11335;43.848;25.958;2022-07-23T11:09:43;100994.47;;;37.89;28.14
22335;BME280;11335;43.848;25.958;2022-07-23T11:15:15;100990.88;;;38.31;28.24
22335;BME280;11335;43.848;25.958;2022-07-23T11:18:01;100983.72;;;37.88;28.02
22335;BME280;11335;43.848;25.958;2022-07-23T11:20:47;100984.44;;;37.96;27.13
22335;BME280;11335;43.848;25.958;2022-07-23T11:23:58;100983.13;;;37.92;27.84
22335;BME280;11335;43.848;25.958;2022-07-23T11:26:50;100986.00;;;38.05;27.49
22335;BME280;11335;43.848;25.958;2022-07-23T11:29:37;100977.16;;;37.82;28.14
22335;BME280;11335;43.848;25.958;2022-07-23T11:32:28;100977.34;;;38.50;27.69
22335;BME280;11335;43.848;25.958;2022-07-23T11:35:26;100970.66;;;38.04;27.38
22335;BME280;11335;43.848;25.958;2022-07-23T11:38:21;100974.94;;;38.68;27.79
22335;BME280;11335;43.848;25.958;2022-07-23T11:41:08;100971.25;;;38.55;27.13
22335;BME280;11335;43.848;25.958;2022-07-23T11:43:55;100967.16;;;39.06;26.38
22335;BME280;11335;43.848;25.958;2022-07-23T11:46:54;100972.03;;;38.76;26.80
22335;BME280;11335;43.848;25.958;2022-07-23T11:50:00;100964.88;;;38.20;27.05
22335;BME280;11335;43.848;25.958;2022-07-23T11:52:46;100970.66;;;38.94;26.57
22335;BME280;11335;43.848;25.958;2022-07-23T11:55:32;100966.28;;;39.06;26.41
22335;BME280;11335;43.848;25.958;2022-07-23T11:58:18;100964.88;;;38.20;27.54
22335;BME280;11335;43.848;25.958;2022-07-23T12:01:04;100959.41;;;38.82;26.66
22335;BME280;11335;43.848;25.958;2022-07-23T12:03:51;100964.53;;;38.57;26.88
22335;BME280;11335;43.848;25.958;2022-07-23T12:06:38;100964.31;;;39.40;26.39
22335;BME280;11335;43.848;25.958;2022-07-23T12:09:23;100959.41;;;38.82;26.63
22335;BME280;11335;43.848;25.958;2022-07-23T12:12:09;100949.59;;;38.94;26.44
22335;BME280;11335;43.848;25.958;2022-07-23T12:14:57;100947.69;;;38.60;26.73
22335;BME280;11335;43.848;25.958;2022-07-23T12:17:46;100942.44;;;38.65;27.12
22335;BME280;11335;43.848;25.958;2022-07-23T12:20:35;100943.94;;;39.09;26.68
22335;BME280;11335;43.848;25.958;2022-07-23T12:23:23;100938.16;;;38.91;26.39
22335;BME280;11335;43.848;25.958;2022-07-23T12:26:09;100940.38;;;39.15;26.06
22335;BME280;11335;43.848;25.958;2022-07-23T12:28:57;100939.06;;;38.98;26.40
22335;BME280;11335;43.848;25.958;2022-07-23T12:31:43;100932.81;;;39.23;26.60
22335;BME280;11335;43.848;25.958;2022-07-23T12:34:28;100939.91;;;39.58;26.65
22335;BME280;11335;43.848;25.958;2022-07-23T12:37:35;100934.41;;;39.52;26.34
22335;BME280;11335;43.848;25.958;2022-07-23T12:40:44;100931.47;;;38.93;27.06
22335;BME280;11335;43.848;25.958;2022-07-23T12:43:42;100934.81;;;39.68;25.96
22335;BME280;11335;43.848;25.958;2022-07-23T12:46:33;100922.25;;;39.20;26.71
22335;BME280;11335;43.848;25.958;2022-07-23T12:49:26;100920.44;;;39.53;26.45
22335;BME280;11335;43.848;25.958;2022-07-23T12:52:16;100915.41;;;39.50;26.44
22335;BME280;11335;43.848;25.958;2022-07-23T12:55:01;100916.88;;;39.53;26.08
22335;BME280;11335;43.848;25.958;2022-07-23T12:57:47;100914.88;;;39.14;26.05
22335;BME280;11335;43.848;25.958;2022-07-23T13:01:06;100914.91;;;38.12;27.50
22335;BME280;11335;43.848;25.958;2022-07-23T13:04:00;100911.56;;;38.84;26.76
22335;BME280;11335;43.848;25.958;2022-07-23T13:06:57;100903.19;;;38.93;26.71
22335;BME280;11335;43.848;25.958;2022-07-23T13:09:48;100899.41;;;39.00;26.90
22335;BME280;11335;43.848;25.958;2022-07-23T13:12:34;100901.00;;;38.81;26.81
22335;BME280;11335;43.848;25.958;2022-07-23T13:15:20;100893.94;;;39.00;26.41
22335;BME280;11335;43.848;25.958;2022-07-23T13:18:05;100891.00;;;39.08;25.90
22335;BME280;11335;43.848;25.958;2022-07-23T13:20:52;100886.81;;;39.25;27.07
22335;BME280;11335;43.848;25.958;2022-07-23T13:23:37;100882.94;;;38.94;26.25
22335;BME280;11335;43.848;25.958;2022-07-23T13:26:24;100879.09;;;38.88;26.65
22335;BME280;11335;43.848;25.958;2022-07-23T13:29:10;100883.97;;;38.86;26.49
22335;BME280;11335;43.848;25.958;2022-07-23T13:31:56;100884.97;;;38.78;26.12
22335;BME280;11335;43.848;25.958;2022-07-23T13:34:41;100880.25;;;38.53;26.59
22335;BME280;11335;43.848;25.958;2022-07-23T13:37:28;100883.13;;;38.45;26.68
22335;BME280;11335;43.848;25.958;2022-07-23T13:40:14;100881.06;;;38.53;26.23
22335;BME280;11335;43.848;25.958;2022-07-23T13:43:00;100871.19;;;38.59;26.21
22335;BME280;11335;43.848;25.958;2022-07-23T13:45:46;100870.84;;;38.81;26.00
22335;BME280;11335;43.848;25.958;2022-07-23T13:48:32;100872.47;;;38.63;26.08
22335;BME280;11335;43.848;25.958;2022-07-23T13:51:18;100860.66;;;38.62;25.98
22335;BME280;11335;43.848;25.958;2022-07-23T13:54:04;100867.38;;;38.19;25.79
22335;BME280;11335;43.848;25.958;2022-07-23T13:56:49;100868.94;;;38.35;25.71
22335;BME280;11335;43.848;25.958;2022-07-23T13:59:35;100864.47;;;38.61;25.43
22335;BME280;11335;43.848;25.958;2022-07-23T14:02:21;100866.03;;;38.83;25.32
22335;BME280;11335;43.848;25.958;2022-07-23T14:05:10;100858.69;;;37.88;26.14
22335;BME280;11335;43.848;25.958;2022-07-23T14:07:56;100863.13;;;38.10;26.51
22335;BME280;11335;43.848;25.958;2022-07-23T14:10:42;100851.03;;;38.32;26.11
22335;BME280;11335;43.848;25.958;2022-07-23T14:13:28;100864.84;;;38.58;26.07
22335;BME280;11335;43.848;25.958;2022-07-23T14:16:14;100863.44;;;38.69;25.90
22335;BME280;11335;43.848;25.958;2022-07-23T14:18:59;100861.78;;;38.34;25.70
22335;BME280;11335;43.848;25.958;2022-07-23T14:21:45;100861.31;;;38.03;26.87
22335;BME280;11335;43.848;25.958;2022-07-23T14:24:31;100858.53;;;38.24;25.75
22335;BME280;11335;43.848;25.958;2022-07-23T14:27:17;100859.66;;;38.02;26.42
22335;BME280;11335;43.848;25.958;2022-07-23T14:30:03;100858.97;;;38.00;26.38
22335;BME280;11335;43.848;25.958;2022-07-23T14:32:50;100854.44;;;37.79;26.82
22335;BME280;11335;43.848;25.958;2022-07-23T14:35:38;100847.56;;;37.90;26.79
22335;BME280;11335;43.848;25.958;2022-07-23T14:38:24;100843.81;;;38.25;26.41
22335;BME280;11335;43.848;25.958;2022-07-23T14:41:10;100845.94;;;38.29;27.07
22335;BME280;11335;43.848;25.958;2022-07-23T14:43:56;100836.03;;;38.28;26.72
22335;BME280;11335;43.848;25.958;2022-07-23T14:46:42;100833.59;;;38.46;26.53
22335;BME280;11335;43.848;25.958;2022-07-23T14:49:28;100833.00;;;38.10;26.48